Rize — 9HA2781 — position and weather

sailwx.info

Track history (hours):
 
Tides and Currents Weather Stations Pressure Air Temp Water Temp Dewpoint Dewpoint Depression Visibility Wind Speed Wind Dir Waves Ship Positions

Rize

Last reported at 2014-Oct-20 07:15 UTC. Time now 2014-Oct-20 11:34 UTC.
Position N 53°27' E 004°36'.

Length 229 m; draft 9.2 m.

Type: Cargo ship. MMSI: 215677000.

Date/timePositionNaut miles runAvg speedWind from/ knotsBaromVisibWave heightAir tempDewpointWater temp
2014-Oct-20 07:15N 53°27' E 004°36'811.5
2014-Oct-20 06:33N 53°31' E 004°48'1110.7
2014-Oct-20 05:33N 53°34' E 005°05'1010.0
2014-Oct-20 04:33N 53°38' E 005°21'10 9.8
2014-Oct-20 03:33N 53°41' E 005°36'9 9.4
2014-Oct-20 02:33N 53°44' E 005°51'6410.7
2014-Oct-19 20:33N 54°01' E 007°36'1110.7
2014-Oct-19 19:33N 54°02' E 007°54'1110.6
2014-Oct-19 18:33N 54°00' E 008°12'8 8.2
2014-Oct-19 17:33N 53°59' E 008°26'8 8.3
2014-Oct-19 16:33N 53°57' E 008°39'1110.7
2014-Oct-19 15:33N 53°51' E 008°54'1111.3
2014-Oct-19 14:33N 53°53' E 009°13'1211.7
2014-Oct-19 13:33N 53°44' E 009°26'6 5.5
2014-Oct-19 12:32N 53°39' E 009°31'0 0.0
2014-Oct-19 11:32N 53°39' E 009°31'0 0.0
2014-Oct-19 10:32N 53°39' E 009°31'0 0.0
2014-Oct-19 09:32N 53°39' E 009°31'0 0.0
2014-Oct-19 08:32N 53°39' E 009°31'0 0.0
2014-Oct-19 07:32N 53°39' E 009°31'0 0.0
2014-Oct-19 06:32N 53°39' E 009°31'0 0.0
2014-Oct-19 05:32N 53°39' E 009°31'0 0.0
2014-Oct-19 04:32N 53°39' E 009°31'0 0.0
2014-Oct-19 03:32N 53°39' E 009°31'0 0.0
2014-Oct-19 02:32N 53°39' E 009°31'0 0.0
2014-Oct-19 01:32N 53°39' E 009°31'0 0.0
2014-Oct-19 00:32N 53°39' E 009°31'0 0.0
2014-Oct-18 23:32N 53°39' E 009°31'0 0.0
2014-Oct-18 22:29N 53°39' E 009°31'0 0.0
2014-Oct-18 21:32N 53°39' E 009°31'0 0.0
2014-Oct-18 20:32N 53°39' E 009°31'0 0.0
2014-Oct-18 19:32N 53°39' E 009°31'0 0.0
2014-Oct-18 18:32N 53°39' E 009°31'0 0.0
2014-Oct-18 17:32N 53°39' E 009°31'0 0.0
2014-Oct-18 16:32N 53°39' E 009°31'0 0.0
2014-Oct-18 15:32N 53°39' E 009°31'0 0.0
2014-Oct-18 14:32N 53°39' E 009°31'0 0.0
2014-Oct-18 13:32N 53°39' E 009°31'0 0.0
2014-Oct-18 12:29N 53°39' E 009°31'0 0.0
2014-Oct-18 11:32N 53°39' E 009°31'0 0.0
2014-Oct-18 10:32N 53°39' E 009°31'0 0.0
2014-Oct-18 09:32N 53°39' E 009°31'0 0.0
2014-Oct-18 08:32N 53°39' E 009°31'0 0.0
2014-Oct-18 07:32N 53°39' E 009°31'0 0.0
2014-Oct-18 06:32N 53°39' E 009°31'0 0.0
2014-Oct-18 05:32N 53°39' E 009°31'0 0.0
2014-Oct-18 04:32N 53°39' E 009°31'0 0.0
2014-Oct-18 03:32N 53°39' E 009°31'0 0.0
2014-Oct-18 02:32N 53°39' E 009°31'0 0.0
2014-Oct-18 01:32N 53°39' E 009°31'0 0.0
2014-Oct-18 00:32N 53°39' E 009°31'0 0.0
2014-Oct-17 23:32N 53°39' E 009°31'0 0.0
2014-Oct-17 22:32N 53°39' E 009°31'0 0.0
2014-Oct-17 21:32N 53°39' E 009°31'0 0.0
2014-Oct-17 20:32N 53°39' E 009°31'0 0.0
2014-Oct-17 19:32N 53°39' E 009°31'0 0.0
2014-Oct-17 18:32N 53°39' E 009°31'0 0.0
2014-Oct-17 17:32N 53°39' E 009°31'0 0.0
2014-Oct-17 16:32N 53°39' E 009°31'0 0.0
2014-Oct-17 15:32N 53°39' E 009°31'0 0.0
2014-Oct-17 14:32N 53°39' E 009°31'0 0.0
2014-Oct-17 13:32N 53°39' E 009°31'0 0.0
2014-Oct-17 12:32N 53°39' E 009°31'0 0.0
2014-Oct-17 11:32N 53°39' E 009°31'0 0.0
2014-Oct-17 10:32N 53°39' E 009°31'0 0.0
2014-Oct-17 09:32N 53°39' E 009°31'0 0.0
2014-Oct-17 08:32N 53°39' E 009°31'0 0.0
2014-Oct-17 07:32N 53°39' E 009°31'0 0.0
2014-Oct-17 06:32N 53°39' E 009°31'0 0.0
2014-Oct-17 05:32N 53°39' E 009°31'0 0.0
2014-Oct-17 04:32N 53°39' E 009°31'0 0.0
2014-Oct-17 03:32N 53°39' E 009°31'0 0.0
2014-Oct-17 02:32N 53°39' E 009°31'0 0.0
2014-Oct-17 01:32N 53°39' E 009°31'0 0.0
2014-Oct-17 00:32N 53°39' E 009°31'0 0.0
2014-Oct-16 23:32N 53°39' E 009°31'0 0.0
2014-Oct-16 22:32N 53°39' E 009°31'0 0.0
2014-Oct-16 21:32N 53°39' E 009°31'0 0.0
2014-Oct-16 20:32N 53°39' E 009°31'0 0.0
2014-Oct-16 19:32N 53°39' E 009°31'0 0.0
2014-Oct-16 18:32N 53°39' E 009°31'0 0.0
2014-Oct-16 17:32N 53°39' E 009°31'0 0.0
2014-Oct-16 16:32N 53°39' E 009°31'0 0.0
2014-Oct-16 15:31N 53°39' E 009°31'0 0.0
2014-Oct-16 14:32N 53°39' E 009°31'0 0.0
2014-Oct-16 13:32N 53°39' E 009°31'0 0.0
2014-Oct-16 12:32N 53°39' E 009°31'0 0.0
2014-Oct-16 11:32N 53°39' E 009°31'0 0.0
2014-Oct-16 10:32N 53°39' E 009°31'0 0.0
2014-Oct-16 09:32N 53°39' E 009°31'0 0.0
2014-Oct-16 08:32N 53°39' E 009°31'0 0.0
2014-Oct-16 07:32N 53°39' E 009°31'0 0.0
2014-Oct-16 06:32N 53°39' E 009°31'0 0.0
2014-Oct-16 05:32N 53°39' E 009°31'0 0.0
2014-Oct-16 04:31N 53°39' E 009°31'0 0.0
2014-Oct-16 03:31N 53°39' E 009°31'0 0.0
2014-Oct-16 02:31N 53°39' E 009°31'0 0.0
2014-Oct-16 01:32N 53°39' E 009°31'0 0.0
2014-Oct-16 00:32N 53°39' E 009°31'0 0.0
2014-Oct-15 23:32N 53°39' E 009°31'0 0.0
2014-Oct-15 22:32N 53°39' E 009°31'0 0.0
2014-Oct-15 21:31N 53°39' E 009°31'0 0.0
2014-Oct-15 20:32N 53°39' E 009°31'0 0.0
2014-Oct-15 19:31N 53°39' E 009°31'0 0.0
2014-Oct-15 18:31N 53°39' E 009°31'0 0.0
2014-Oct-15 17:31N 53°39' E 009°31'0 0.0
2014-Oct-15 16:31N 53°39' E 009°31'0 0.0
2014-Oct-15 15:31N 53°39' E 009°31'0 0.0
2014-Oct-15 14:31N 53°39' E 009°31'0 0.0
2014-Oct-15 13:31N 53°39' E 009°31'0 0.0
2014-Oct-15 12:32N 53°39' E 009°31'0 0.0
2014-Oct-15 11:32N 53°39' E 009°31'0 0.0
2014-Oct-15 10:31N 53°39' E 009°31'0 0.0
2014-Oct-15 09:31N 53°39' E 009°31'0 0.0
2014-Oct-15 08:31N 53°39' E 009°31'0 0.0
2014-Oct-15 07:32N 53°39' E 009°31'0 0.0
2014-Oct-15 06:32N 53°39' E 009°31'0 0.0
2014-Oct-15 05:31N 53°39' E 009°31'0 0.0
2014-Oct-15 04:31N 53°39' E 009°31'0 0.0
2014-Oct-15 03:31N 53°39' E 009°31'0 0.0
2014-Oct-15 02:31N 53°39' E 009°31'0 0.0
2014-Oct-15 01:31N 53°39' E 009°31'0 0.0
2014-Oct-15 00:31N 53°39' E 009°31'0 0.0
2014-Oct-14 23:31N 53°39' E 009°31'0 0.0
2014-Oct-14 22:31N 53°39' E 009°31'0 0.0
2014-Oct-14 21:32N 53°39' E 009°31'0 0.0
2014-Oct-14 20:31N 53°39' E 009°31'0 0.0
2014-Oct-14 19:32N 53°39' E 009°31'0 0.0
2014-Oct-14 18:31N 53°39' E 009°31'0 0.0
2014-Oct-14 17:32N 53°39' E 009°31'0 0.0
2014-Oct-14 16:31N 53°39' E 009°31'0 0.0
2014-Oct-14 15:31N 53°39' E 009°31'0 0.0
2014-Oct-14 14:31N 53°39' E 009°31'0 0.0
2014-Oct-14 13:31N 53°39' E 009°31'0 0.0
2014-Oct-14 12:31N 53°39' E 009°31'0 0.0
2014-Oct-14 11:31N 53°39' E 009°31'0 0.0
2014-Oct-14 10:31N 53°39' E 009°31'0 0.0
2014-Oct-14 09:31N 53°39' E 009°31'0 0.0
2014-Oct-14 08:31N 53°39' E 009°31'0 0.0
2014-Oct-14 07:31N 53°39' E 009°31'0 0.0
2014-Oct-14 06:31N 53°39' E 009°31'0 0.0
2014-Oct-14 05:31N 53°39' E 009°31'0 0.0
2014-Oct-14 04:31N 53°39' E 009°31'0 0.0
2014-Oct-14 03:31N 53°39' E 009°31'0 0.0
2014-Oct-14 02:31N 53°39' E 009°31'0 0.0
2014-Oct-14 01:31N 53°39' E 009°31'0 0.0
2014-Oct-14 00:31N 53°39' E 009°31'0 0.0
2014-Oct-13 23:31N 53°39' E 009°31'0 0.0
2014-Oct-13 22:31N 53°39' E 009°31'0 0.0
2014-Oct-13 21:31N 53°39' E 009°31'0 0.0
2014-Oct-13 20:31N 53°39' E 009°31'0 0.0
2014-Oct-13 19:31N 53°39' E 009°31'0 0.1
2014-Oct-13 18:34N 53°39' E 009°31'9 9.1
2014-Oct-13 17:33N 53°47' E 009°23'9 9.5
2014-Oct-13 16:34N 53°53' E 009°10'9 9.0
2014-Oct-13 15:33N 53°51' E 008°55'9 8.9
2014-Oct-13 14:34N 53°54' E 008°41'1010.2
2014-Oct-13 13:34N 53°59' E 008°26'1110.5
2014-Oct-13 12:34N 53°59' E 008°08'9 8.9
2014-Oct-13 11:34N 54°03' E 007°54'5 4.9
2014-Oct-13 10:33N 54°06' E 007°47'5 4.9
2014-Oct-13 09:33N 54°08' E 007°40'6 5.7
2014-Oct-13 08:34N 54°09' E 007°30'7 7.2
2014-Oct-13 07:33N 54°09' E 007°18'54 8.4
2014-Oct-13 01:12N 54°06' E 005°46'6 9.3
2014-Oct-13 00:34N 54°05' E 005°36'10 9.7
2014-Oct-12 23:33N 54°03' E 005°20'10 9.8
2014-Oct-12 22:33N 53°60' E 005°05'1010.3
2014-Oct-12 21:33N 53°50' E 004°58'1310.4
2014-Oct-12 20:19N 53°38' E 004°51'810.9
2014-Oct-12 19:33N 53°30' E 004°47'1111.3
2014-Oct-12 18:33N 53°20' E 004°38'1111.4
2014-Oct-12 17:33N 53°10' E 004°30'1110.8
2014-Oct-12 16:33N 53°00' E 004°21'1010.2
2014-Oct-12 15:33N 52°51' E 004°14'10 9.5
2014-Oct-12 14:33N 52°44' E 004°03'9 9.3
2014-Oct-12 13:33N 52°37' E 003°53'9 9.0
2014-Oct-12 12:33N 52°31' E 003°42'67 9.6
2014-Oct-12 05:33N 51°41' E 002°29'1211.6
2014-Oct-12 04:34N 51°32' E 002°16'1110.7
2014-Oct-12 03:34N 51°23' E 002°08'8 8.1
2014-Oct-12 02:33N 51°15' E 002°08'1010.5
2014-Oct-12 01:33N 51°10' E 001°53'1212.4
2014-Oct-12 00:33N 51°02' E 001°38'41 9.8
2014-Oct-11 20:23N 50°30' E 000°58'10 9.1
2014-Oct-11 19:20N 50°27' E 000°44'8 8.8
2014-Oct-11 18:25N 50°25' E 000°32'7 8.5
2014-Oct-11 17:33N 50°23' E 000°21'  
Track history (hours):
 
Tides and Currents Weather Stations Pressure Air Temp Water Temp Dewpoint Dewpoint Depression Visibility Wind Speed Wind Dir Waves Ship Positions

Rize

Last reported at 2014-Oct-20 07:15 UTC. Time now 2014-Oct-20 11:34 UTC.
Position N 53°27' E 004°36'.

Length 229 m; draft 9.2 m.

Type: Cargo ship. MMSI: 215677000.

Date/timePositionNaut miles runAvg speedWind from/ knotsBaromVisibWave heightAir tempDewpointWater temp
2014-Oct-20 07:15N 53°27' E 004°36'811.5
2014-Oct-20 06:33N 53°31' E 004°48'1110.7
2014-Oct-20 05:33N 53°34' E 005°05'1010.0
2014-Oct-20 04:33N 53°38' E 005°21'10 9.8
2014-Oct-20 03:33N 53°41' E 005°36'9 9.4
2014-Oct-20 02:33N 53°44' E 005°51'6410.7
2014-Oct-19 20:33N 54°01' E 007°36'1110.7
2014-Oct-19 19:33N 54°02' E 007°54'1110.6
2014-Oct-19 18:33N 54°00' E 008°12'8 8.2
2014-Oct-19 17:33N 53°59' E 008°26'8 8.3
2014-Oct-19 16:33N 53°57' E 008°39'1110.7
2014-Oct-19 15:33N 53°51' E 008°54'1111.3
2014-Oct-19 14:33N 53°53' E 009°13'1211.7
2014-Oct-19 13:33N 53°44' E 009°26'6 5.5
2014-Oct-19 12:32N 53°39' E 009°31'0 0.0
2014-Oct-19 11:32N 53°39' E 009°31'0 0.0
2014-Oct-19 10:32N 53°39' E 009°31'0 0.0
2014-Oct-19 09:32N 53°39' E 009°31'0 0.0
2014-Oct-19 08:32N 53°39' E 009°31'0 0.0
2014-Oct-19 07:32N 53°39' E 009°31'0 0.0
2014-Oct-19 06:32N 53°39' E 009°31'0 0.0
2014-Oct-19 05:32N 53°39' E 009°31'0 0.0
2014-Oct-19 04:32N 53°39' E 009°31'0 0.0
2014-Oct-19 03:32N 53°39' E 009°31'0 0.0
2014-Oct-19 02:32N 53°39' E 009°31'0 0.0
2014-Oct-19 01:32N 53°39' E 009°31'0 0.0
2014-Oct-19 00:32N 53°39' E 009°31'0 0.0
2014-Oct-18 23:32N 53°39' E 009°31'0 0.0
2014-Oct-18 22:29N 53°39' E 009°31'0 0.0
2014-Oct-18 21:32N 53°39' E 009°31'0 0.0
2014-Oct-18 20:32N 53°39' E 009°31'0 0.0
2014-Oct-18 19:32N 53°39' E 009°31'0 0.0
2014-Oct-18 18:32N 53°39' E 009°31'0 0.0
2014-Oct-18 17:32N 53°39' E 009°31'0 0.0
2014-Oct-18 16:32N 53°39' E 009°31'0 0.0
2014-Oct-18 15:32N 53°39' E 009°31'0 0.0
2014-Oct-18 14:32N 53°39' E 009°31'0 0.0
2014-Oct-18 13:32N 53°39' E 009°31'0 0.0
2014-Oct-18 12:29N 53°39' E 009°31'0 0.0
2014-Oct-18 11:32N 53°39' E 009°31'0 0.0
2014-Oct-18 10:32N 53°39' E 009°31'0 0.0
2014-Oct-18 09:32N 53°39' E 009°31'0 0.0
2014-Oct-18 08:32N 53°39' E 009°31'0 0.0
2014-Oct-18 07:32N 53°39' E 009°31'0 0.0
2014-Oct-18 06:32N 53°39' E 009°31'0 0.0
2014-Oct-18 05:32N 53°39' E 009°31'0 0.0
2014-Oct-18 04:32N 53°39' E 009°31'0 0.0
2014-Oct-18 03:32N 53°39' E 009°31'0 0.0
2014-Oct-18 02:32N 53°39' E 009°31'0 0.0
2014-Oct-18 01:32N 53°39' E 009°31'0 0.0
2014-Oct-18 00:32N 53°39' E 009°31'0 0.0
2014-Oct-17 23:32N 53°39' E 009°31'0 0.0
2014-Oct-17 22:32N 53°39' E 009°31'0 0.0
2014-Oct-17 21:32N 53°39' E 009°31'0 0.0
2014-Oct-17 20:32N 53°39' E 009°31'0 0.0
2014-Oct-17 19:32N 53°39' E 009°31'0 0.0
2014-Oct-17 18:32N 53°39' E 009°31'0 0.0
2014-Oct-17 17:32N 53°39' E 009°31'0 0.0
2014-Oct-17 16:32N 53°39' E 009°31'0 0.0
2014-Oct-17 15:32N 53°39' E 009°31'0 0.0
2014-Oct-17 14:32N 53°39' E 009°31'0 0.0
2014-Oct-17 13:32N 53°39' E 009°31'0 0.0
2014-Oct-17 12:32N 53°39' E 009°31'0 0.0
2014-Oct-17 11:32N 53°39' E 009°31'0 0.0
2014-Oct-17 10:32N 53°39' E 009°31'0 0.0
2014-Oct-17 09:32N 53°39' E 009°31'0 0.0
2014-Oct-17 08:32N 53°39' E 009°31'0 0.0
2014-Oct-17 07:32N 53°39' E 009°31'0 0.0
2014-Oct-17 06:32N 53°39' E 009°31'0 0.0
2014-Oct-17 05:32N 53°39' E 009°31'0 0.0
2014-Oct-17 04:32N 53°39' E 009°31'0 0.0
2014-Oct-17 03:32N 53°39' E 009°31'0 0.0
2014-Oct-17 02:32N 53°39' E 009°31'0 0.0
2014-Oct-17 01:32N 53°39' E 009°31'0 0.0
2014-Oct-17 00:32N 53°39' E 009°31'0 0.0
2014-Oct-16 23:32N 53°39' E 009°31'0 0.0
2014-Oct-16 22:32N 53°39' E 009°31'0 0.0
2014-Oct-16 21:32N 53°39' E 009°31'0 0.0
2014-Oct-16 20:32N 53°39' E 009°31'0 0.0
2014-Oct-16 19:32N 53°39' E 009°31'0 0.0
2014-Oct-16 18:32N 53°39' E 009°31'0 0.0
2014-Oct-16 17:32N 53°39' E 009°31'0 0.0
2014-Oct-16 16:32N 53°39' E 009°31'0 0.0
2014-Oct-16 15:31N 53°39' E 009°31'0 0.0
2014-Oct-16 14:32N 53°39' E 009°31'0 0.0
2014-Oct-16 13:32N 53°39' E 009°31'0 0.0
2014-Oct-16 12:32N 53°39' E 009°31'0 0.0
2014-Oct-16 11:32N 53°39' E 009°31'0 0.0
2014-Oct-16 10:32N 53°39' E 009°31'0 0.0
2014-Oct-16 09:32N 53°39' E 009°31'0 0.0
2014-Oct-16 08:32N 53°39' E 009°31'0 0.0
2014-Oct-16 07:32N 53°39' E 009°31'0 0.0
2014-Oct-16 06:32N 53°39' E 009°31'0 0.0
2014-Oct-16 05:32N 53°39' E 009°31'0 0.0
2014-Oct-16 04:31N 53°39' E 009°31'0 0.0
2014-Oct-16 03:31N 53°39' E 009°31'0 0.0
2014-Oct-16 02:31N 53°39' E 009°31'0 0.0
2014-Oct-16 01:32N 53°39' E 009°31'0 0.0
2014-Oct-16 00:32N 53°39' E 009°31'0 0.0
2014-Oct-15 23:32N 53°39' E 009°31'0 0.0
2014-Oct-15 22:32N 53°39' E 009°31'0 0.0
2014-Oct-15 21:31N 53°39' E 009°31'0 0.0
2014-Oct-15 20:32N 53°39' E 009°31'0 0.0
2014-Oct-15 19:31N 53°39' E 009°31'0 0.0
2014-Oct-15 18:31N 53°39' E 009°31'0 0.0
2014-Oct-15 17:31N 53°39' E 009°31'0 0.0
2014-Oct-15 16:31N 53°39' E 009°31'0 0.0
2014-Oct-15 15:31N 53°39' E 009°31'0 0.0
2014-Oct-15 14:31N 53°39' E 009°31'0 0.0
2014-Oct-15 13:31N 53°39' E 009°31'0 0.0
2014-Oct-15 12:32N 53°39' E 009°31'0 0.0
2014-Oct-15 11:32N 53°39' E 009°31'0 0.0
2014-Oct-15 10:31N 53°39' E 009°31'0 0.0
2014-Oct-15 09:31N 53°39' E 009°31'0 0.0
2014-Oct-15 08:31N 53°39' E 009°31'0 0.0
2014-Oct-15 07:32N 53°39' E 009°31'0 0.0
2014-Oct-15 06:32N 53°39' E 009°31'0 0.0
2014-Oct-15 05:31N 53°39' E 009°31'0 0.0
2014-Oct-15 04:31N 53°39' E 009°31'0 0.0
2014-Oct-15 03:31N 53°39' E 009°31'0 0.0
2014-Oct-15 02:31N 53°39' E 009°31'0 0.0
2014-Oct-15 01:31N 53°39' E 009°31'0 0.0
2014-Oct-15 00:31N 53°39' E 009°31'0 0.0
2014-Oct-14 23:31N 53°39' E 009°31'0 0.0
2014-Oct-14 22:31N 53°39' E 009°31'0 0.0
2014-Oct-14 21:32N 53°39' E 009°31'0 0.0
2014-Oct-14 20:31N 53°39' E 009°31'0 0.0
2014-Oct-14 19:32N 53°39' E 009°31'0 0.0
2014-Oct-14 18:31N 53°39' E 009°31'0 0.0
2014-Oct-14 17:32N 53°39' E 009°31'0 0.0
2014-Oct-14 16:31N 53°39' E 009°31'0 0.0
2014-Oct-14 15:31N 53°39' E 009°31'0 0.0
2014-Oct-14 14:31N 53°39' E 009°31'0 0.0
2014-Oct-14 13:31N 53°39' E 009°31'0 0.0
2014-Oct-14 12:31N 53°39' E 009°31'0 0.0
2014-Oct-14 11:31N 53°39' E 009°31'0 0.0
2014-Oct-14 10:31N 53°39' E 009°31'0 0.0
2014-Oct-14 09:31N 53°39' E 009°31'0 0.0
2014-Oct-14 08:31N 53°39' E 009°31'0 0.0
2014-Oct-14 07:31N 53°39' E 009°31'0 0.0
2014-Oct-14 06:31N 53°39' E 009°31'0 0.0
2014-Oct-14 05:31N 53°39' E 009°31'0 0.0
2014-Oct-14 04:31N 53°39' E 009°31'0 0.0
2014-Oct-14 03:31N 53°39' E 009°31'0 0.0
2014-Oct-14 02:31N 53°39' E 009°31'0 0.0
2014-Oct-14 01:31N 53°39' E 009°31'0 0.0
2014-Oct-14 00:31N 53°39' E 009°31'0 0.0
2014-Oct-13 23:31N 53°39' E 009°31'0 0.0
2014-Oct-13 22:31N 53°39' E 009°31'0 0.0
2014-Oct-13 21:31N 53°39' E 009°31'0 0.0
2014-Oct-13 20:31N 53°39' E 009°31'0 0.0
2014-Oct-13 19:31N 53°39' E 009°31'0 0.1
2014-Oct-13 18:34N 53°39' E 009°31'9 9.1
2014-Oct-13 17:33N 53°47' E 009°23'9 9.5
2014-Oct-13 16:34N 53°53' E 009°10'9 9.0
2014-Oct-13 15:33N 53°51' E 008°55'9 8.9
2014-Oct-13 14:34N 53°54' E 008°41'1010.2
2014-Oct-13 13:34N 53°59' E 008°26'1110.5
2014-Oct-13 12:34N 53°59' E 008°08'9 8.9
2014-Oct-13 11:34N 54°03' E 007°54'5 4.9
2014-Oct-13 10:33N 54°06' E 007°47'5 4.9
2014-Oct-13 09:33N 54°08' E 007°40'6 5.7
2014-Oct-13 08:34N 54°09' E 007°30'7 7.2
2014-Oct-13 07:33N 54°09' E 007°18'54 8.4
2014-Oct-13 01:12N 54°06' E 005°46'6 9.3
2014-Oct-13 00:34N 54°05' E 005°36'10 9.7
2014-Oct-12 23:33N 54°03' E 005°20'10 9.8
2014-Oct-12 22:33N 53°60' E 005°05'1010.3
2014-Oct-12 21:33N 53°50' E 004°58'1310.4
2014-Oct-12 20:19N 53°38' E 004°51'810.9
2014-Oct-12 19:33N 53°30' E 004°47'1111.3
2014-Oct-12 18:33N 53°20' E 004°38'1111.4
2014-Oct-12 17:33N 53°10' E 004°30'1110.8
2014-Oct-12 16:33N 53°00' E 004°21'1010.2
2014-Oct-12 15:33N 52°51' E 004°14'10 9.5
2014-Oct-12 14:33N 52°44' E 004°03'9 9.3
2014-Oct-12 13:33N 52°37' E 003°53'9 9.0
2014-Oct-12 12:33N 52°31' E 003°42'67 9.6
2014-Oct-12 05:33N 51°41' E 002°29'1211.6
2014-Oct-12 04:34N 51°32' E 002°16'1110.7
2014-Oct-12 03:34N 51°23' E 002°08'8 8.1
2014-Oct-12 02:33N 51°15' E 002°08'1010.5
2014-Oct-12 01:33N 51°10' E 001°53'1212.4
2014-Oct-12 00:33N 51°02' E 001°38'41 9.8
2014-Oct-11 20:23N 50°30' E 000°58'10 9.1
2014-Oct-11 19:20N 50°27' E 000°44'8 8.8
2014-Oct-11 18:25N 50°25' E 000°32'7 8.5
2014-Oct-11 17:33N 50°23' E 000°21'  

Dump ship's entire track history